Time;durP1;ratioP1;P1;durP2;ratioP2;P2;SDS_P1;SDS_P2;PMS_P1;PMS_P2;Temp;Humidity;BMP_temperature;BMP_pressure;BME280_temperature;BME280_humidity;BME280_pressure;Samples;Min_cycle;Max_cycle;Signal;HPM_P1;HPM_P2
2021/05/22 00:00:53;;;;;;;13.70;2.35;;;11.60;75.70;;;;;;5126287;27;20059;-54
2021/05/22 00:03:20;;;;;;;10.38;2.20;;;11.60;75.20;;;;;;5111572;28;20035;-54
2021/05/22 00:05:49;;;;;;;7.97;1.70;;;11.50;75.80;;;;;;5131116;27;20092;-56
2021/05/22 00:08:15;;;;;;;7.85;1.88;;;11.50;75.80;;;;;;5125007;28;20081;-53
2021/05/22 00:10:41;;;;;;;11.82;2.70;;;11.40;76.00;;;;;;5124180;28;20073;-57
2021/05/22 00:13:08;;;;;;;10.82;1.90;;;11.40;77.30;;;;;;5124658;28;20062;-56
2021/05/22 00:15:34;;;;;;;6.47;1.85;;;11.30;77.80;;;;;;5124944;28;20552;-57
2021/05/22 00:18:01;;;;;;;11.48;2.45;;;11.30;78.10;;;;;;5125515;28;20055;-53
2021/05/22 00:20:27;;;;;;;11.13;2.17;;;11.30;79.30;;;;;;5127535;28;20533;-55
2021/05/22 00:22:53;;;;;;;6.43;1.60;;;11.30;79.30;;;;;;5127277;28;20051;-56
2021/05/22 00:25:20;;;;;;;11.35;2.47;;;11.30;79.90;;;;;;5130246;27;20032;-54
2021/05/22 00:27:46;;;;;;;8.85;2.25;;;11.30;80.20;;;;;;5128300;28;20078;-54
2021/05/22 00:30:15;;;;;;;13.07;2.25;;;11.20;80.30;;;;;;5107119;28;20048;-53
2021/05/22 00:32:41;;;;;;;10.40;2.08;;;11.20;80.50;;;;;;5135496;27;20146;-52
2021/05/22 00:35:08;;;;;;;12.32;2.28;;;11.20;80.00;;;;;;5128335;27;20043;-53
2021/05/22 00:37:34;;;;;;;8.27;2.20;;;11.20;80.70;;;;;;5131660;27;20053;-55
2021/05/22 00:40:01;;;;;;;18.00;2.40;;;11.20;80.60;;;;;;5131531;27;20062;-53
2021/05/22 00:42:28;;;;;;;7.30;1.80;;;11.20;80.70;;;;;;5131857;27;20047;-53
2021/05/22 00:45:20;;;;;;;10.15;2.67;;;11.20;80.50;;;;;;5132186;27;20411;-52
2021/05/22 00:47:48;;;;;;;;;;;11.20;79.90;;;;;;5132303;27;20055;-56
2021/05/22 00:50:35;;;;;;;11.13;2.20;;;11.20;80.60;;;;;;5131613;27;19948;-53
2021/05/22 00:53:02;;;;;;;10.32;2.30;;;11.20;80.30;;;;;;5112209;27;20195;-55
2021/05/22 00:55:29;;;;;;;11.52;2.53;;;11.20;80.10;;;;;;5131660;27;20039;-54
2021/05/22 00:57:56;;;;;;;11.70;2.05;;;11.20;80.30;;;;;;5131311;27;20047;-53
2021/05/22 01:00:37;;;;;;;10.18;2.33;;;11.20;80.40;;;;;;5131785;27;20051;-54
2021/05/22 01:03:04;;;;;;;11.65;1.90;;;11.20;80.20;;;;;;5123622;27;20824;-55
2021/05/22 01:05:30;;;;;;;11.02;2.42;;;11.20;80.10;;;;;;5130945;27;20039;-53
2021/05/22 01:07:57;;;;;;;9.82;2.15;;;11.20;80.60;;;;;;5130765;27;20058;-57
2021/05/22 01:10:23;;;;;;;11.50;2.30;;;11.20;80.60;;;;;;5112344;27;20538;-55
2021/05/22 01:12:53;;;;;;;12.20;2.05;;;11.20;80.60;;;;;;5131761;27;20051;-54
2021/05/22 01:15:28;;;;;;;9.82;2.28;;;11.20;81.10;;;;;;5138269;27;20100;-56
2021/05/22 01:17:54;;;;;;;8.20;2.35;;;11.10;81.80;;;;;;5132619;27;20443;-55
2021/05/22 01:20:31;;;;;;;11.05;1.88;;;11.10;82.20;;;;;;5112984;27;20051;-51
2021/05/22 01:23:03;;;;;;;9.27;2.28;;;11.10;83.90;;;;;;5109930;28;20059;-54
2021/05/22 01:25:36;;;;;;;14.82;2.70;;;11.00;84.20;;;;;;5135728;27;20058;-54
2021/05/22 01:28:05;;;;;;;6.00;1.90;;;11.00;85.30;;;;;;5131163;27;20058;-57
2021/05/22 01:30:32;;;;;;;6.60;1.75;;;11.00;84.80;;;;;;5131256;27;20062;-53
2021/05/22 01:32:58;;;;;;;8.43;1.80;;;11.00;85.70;;;;;;5110898;28;20635;-55
2021/05/22 01:35:30;;;;;;;8.30;2.25;;;11.00;85.60;;;;;;5127061;27;20502;-53
2021/05/22 01:37:57;;;;;;;8.13;2.65;;;11.00;86.70;;;;;;5131522;27;20058;-55
2021/05/22 01:40:23;;;;;;;9.43;2.80;;;10.90;85.90;;;;;;5138428;27;20462;-52
2021/05/22 01:42:49;;;;;;;8.45;2.60;;;10.90;87.20;;;;;;5131847;27;20051;-53
2021/05/22 01:45:28;;;;;;;7.80;2.03;;;10.90;86.90;;;;;;5130819;27;20035;-55
2021/05/22 01:48:06;;;;;;;5.07;2.00;;;10.90;87.30;;;;;;5130612;27;20502;-60
2021/05/22 01:50:34;;;;;;;7.35;1.90;;;10.80;87.50;;;;;;5135345;27;20550;-55
2021/05/22 01:53:04;;;;;;;8.35;2.33;;;10.90;87.40;;;;;;5131652;27;20066;-54
2021/05/22 01:55:31;;;;;;;8.02;2.30;;;10.80;88.00;;;;;;5132210;27;20050;-53
2021/05/22 01:57:57;;;;;;;8.00;1.88;;;10.80;87.90;;;;;;5132379;27;20138;-57
2021/05/22 02:00:26;;;;;;;7.50;2.00;;;10.80;87.80;;;;;;5131695;27;20054;-54
2021/05/22 02:03:03;;;;;;;12.68;2.55;;;10.80;88.30;;;;;;5131063;27;20051;-55
2021/05/22 02:05:30;;;;;;;10.32;3.03;;;10.80;88.30;;;;;;5112619;27;20054;-55
2021/05/22 02:07:57;;;;;;;9.95;2.17;;;10.80;88.80;;;;;;5111750;27;20062;-52
2021/05/22 02:10:25;;;;;;;11.80;2.28;;;10.80;88.70;;;;;;5130323;27;20070;-55
2021/05/22 02:12:54;;;;;;;7.03;2.17;;;10.80;88.60;;;;;;5129853;27;20550;-52
2021/05/22 02:15:23;;;;;;;6.22;2.10;;;10.80;89.00;;;;;;5130445;27;20055;-54
2021/05/22 02:17:51;;;;;;;6.38;1.77;;;10.80;89.00;;;;;;5129558;27;20055;-54
2021/05/22 02:20:18;;;;;;;5.93;1.90;;;10.70;89.10;;;;;;5129915;27;20062;-53
2021/05/22 02:22:45;;;;;;;6.82;2.25;;;10.70;89.50;;;;;;5129440;27;20690;-51
2021/05/22 02:25:13;;;;;;;9.05;2.08;;;10.70;89.80;;;;;;5129820;27;20384;-54
2021/05/22 02:27:39;;;;;;;9.40;2.55;;;10.70;89.40;;;;;;5129503;27;20092;-52
2021/05/22 02:30:11;;;;;;;7.65;1.73;;;10.70;89.10;;;;;;5129138;27;20489;-55
2021/05/22 02:32:41;;;;;;;9.52;2.10;;;10.70;89.40;;;;;;5129681;27;20511;-57
2021/05/22 02:35:09;;;;;;;12.48;1.92;;;10.70;89.30;;;;;;5129658;27;20574;-53
2021/05/22 02:37:36;;;;;;;12.90;2.97;;;10.70;89.70;;;;;;5129727;27;20164;-55
2021/05/22 02:40:09;;;;;;;7.10;1.88;;;10.60;89.10;;;;;;5129344;27;20051;-56
2021/05/22 02:42:37;;;;;;;7.78;1.88;;;10.60;90.20;;;;;;5115189;27;20653;-55
2021/05/22 02:45:08;;;;;;;9.52;2.08;;;10.60;89.60;;;;;;5129654;27;20050;-54
2021/05/22 02:47:35;;;;;;;6.15;1.90;;;10.60;89.40;;;;;;5129645;27;20114;-56
2021/05/22 02:50:09;;;;;;;10.95;2.25;;;10.70;89.00;;;;;;5128928;27;20082;-54
2021/05/22 02:52:38;;;;;;;10.20;2.40;;;10.70;88.80;;;;;;5130136;27;20055;-53
2021/05/22 02:55:10;;;;;;;6.88;1.50;;;10.70;88.70;;;;;;5128812;27;20055;-53
2021/05/22 02:57:39;;;;;;;8.13;2.20;;;10.70;88.60;;;;;;5128127;27;20047;-56
2021/05/22 03:00:07;;;;;;;11.13;2.10;;;10.80;88.30;;;;;;5128672;27;20047;-54
2021/05/22 03:02:34;;;;;;;7.75;1.63;;;10.80;88.20;;;;;;5129543;27;20043;-56
2021/05/22 03:05:03;;;;;;;8.75;1.80;;;10.80;88.30;;;;;;5128853;27;20566;-54
2021/05/22 03:07:30;;;;;;;7.20;1.90;;;10.80;87.80;;;;;;5110400;27;20047;-56
2021/05/22 03:09:58;;;;;;;8.15;1.70;;;10.80;87.90;;;;;;5132493;27;20513;-56
2021/05/22 03:12:31;;;;;;;10.88;1.98;;;10.80;87.80;;;;;;5134987;27;20562;-56
2021/05/22 03:14:57;;;;;;;7.68;1.92;;;10.80;87.70;;;;;;5128969;27;20396;-55
2021/05/22 03:17:23;;;;;;;5.47;1.73;;;10.80;87.40;;;;;;5129326;27;20138;-52
2021/05/22 03:19:49;;;;;;;14.10;2.55;;;10.80;87.30;;;;;;5128763;27;20070;-51
2021/05/22 03:22:16;;;;;;;10.70;2.03;;;10.80;88.00;;;;;;5129316;27;20146;-57
2021/05/22 03:24:43;;;;;;;7.55;1.55;;;10.80;88.60;;;;;;5128977;27;20059;-54
2021/05/22 03:27:11;;;;;;;6.25;1.77;;;10.80;89.00;;;;;;5129040;27;20076;-53
2021/05/22 03:29:38;;;;;;;5.25;1.60;;;10.70;88.90;;;;;;5128285;27;20047;-57
2021/05/22 03:32:04;;;;;;;8.60;2.03;;;10.70;89.30;;;;;;5128117;27;20100;-55
2021/05/22 03:34:30;;;;;;;5.57;1.70;;;10.70;89.50;;;;;;5129006;27;20050;-56
2021/05/22 03:36:57;;;;;;;7.75;1.77;;;10.60;90.40;;;;;;5134575;27;20050;-57
2021/05/22 03:39:23;;;;;;;6.32;2.42;;;10.50;90.60;;;;;;5136123;27;20047;-55
2021/05/22 03:41:50;;;;;;;8.90;1.90;;;10.50;91.30;;;;;;5128277;27;20074;-54
2021/05/22 03:44:16;;;;;;;9.15;2.00;;;10.40;92.40;;;;;;5122573;27;20043;-56
2021/05/22 03:46:42;;;;;;;7.97;2.03;;;10.30;92.10;;;;;;5128402;27;20078;-57
2021/05/22 03:49:08;;;;;;;11.00;2.13;;;10.20;93.00;;;;;;5128363;27;20040;-57
2021/05/22 03:51:35;;;;;;;8.18;2.45;;;10.00;93.70;;;;;;5128268;27;20142;-56
2021/05/22 03:54:02;;;;;;;7.75;2.55;;;9.90;95.10;;;;;;5128377;27;20139;-57
2021/05/22 03:56:28;;;;;;;7.93;2.10;;;9.80;95.50;;;;;;5128309;27;20071;-57
2021/05/22 03:58:54;;;;;;;7.93;2.28;;;9.80;95.20;;;;;;5127367;27;20046;-58
2021/05/22 04:01:21;;;;;;;8.23;2.70;;;9.70;95.10;;;;;;5127651;27;20070;-56
2021/05/22 04:03:47;;;;;;;9.77;3.22;;;9.70;95.90;;;;;;5110227;28;20055;-56
2021/05/22 04:06:13;;;;;;;10.43;2.50;;;9.70;95.80;;;;;;5106430;28;20059;-57
2021/05/22 04:08:39;;;;;;;7.28;2.65;;;9.70;95.80;;;;;;5117344;27;20051;-51
2021/05/22 04:11:06;;;;;;;6.68;2.50;;;9.60;96.20;;;;;;5130954;27;20224;-55
2021/05/22 04:13:32;;;;;;;10.38;2.67;;;9.60;96.80;;;;;;5132536;27;20704;-59
2021/05/22 04:15:58;;;;;;;9.02;2.50;;;9.50;96.50;;;;;;5132809;27;20410;-56
2021/05/22 04:18:24;;;;;;;7.70;2.75;;;9.50;96.90;;;;;;5132225;27;20054;-53
2021/05/22 04:20:50;;;;;;;7.80;2.63;;;9.40;97.20;;;;;;5132083;27;20119;-56
2021/05/22 04:23:19;;;;;;;8.65;2.85;;;9.40;97.20;;;;;;5113781;27;20051;-50
2021/05/22 04:25:45;;;;;;;7.85;2.65;;;9.40;97.40;;;;;;5132672;27;20132;-55
2021/05/22 04:28:12;;;;;;;10.75;2.88;;;9.40;98.00;;;;;;5133007;27;20054;-52
2021/05/22 04:30:38;;;;;;;9.20;2.60;;;9.40;97.90;;;;;;5132856;27;20043;-54
2021/05/22 04:33:04;;;;;;;7.07;3.05;;;9.40;98.10;;;;;;5131557;27;20054;-48
2021/05/22 04:35:32;;;;;;;7.35;3.15;;;9.50;98.20;;;;;;5113707;27;20211;-48
2021/05/22 04:37:58;;;;;;;9.85;3.13;;;9.50;98.20;;;;;;5131702;27;20477;-53
2021/05/22 04:40:25;;;;;;;8.05;2.55;;;9.50;98.60;;;;;;5131815;27;20176;-50
2021/05/22 04:42:51;;;;;;;10.05;3.50;;;9.50;98.20;;;;;;5131820;27;20467;-48
2021/05/22 04:45:17;;;;;;;8.65;3.05;;;9.50;98.00;;;;;;5135257;27;20092;-51
2021/05/22 04:47:46;;;;;;;7.55;2.50;;;9.50;98.40;;;;;;5131941;27;20142;-50
2021/05/22 04:50:17;;;;;;;10.52;3.38;;;9.50;98.30;;;;;;5131749;27;20107;-51
2021/05/22 04:52:47;;;;;;;10.75;3.58;;;9.50;98.30;;;;;;5126549;27;20059;-53
2021/05/22 04:55:14;;;;;;;11.80;3.60;;;9.50;98.70;;;;;;5131915;27;20047;-55
2021/05/22 04:57:40;;;;;;;10.88;3.00;;;9.50;98.60;;;;;;5131185;27;20436;-53
2021/05/22 05:00:13;;;;;;;10.30;3.97;;;9.50;98.80;;;;;;5133226;27;20043;-54
2021/05/22 05:02:44;;;;;;;6.90;3.20;;;9.60;98.40;;;;;;5131880;27;20046;-55
2021/05/22 05:05:11;;;;;;;12.47;4.03;;;9.50;98.60;;;;;;5126618;27;20039;-54
2021/05/22 05:07:43;;;;;;;11.48;3.63;;;9.60;98.40;;;;;;5131925;27;20055;-56
2021/05/22 05:10:10;;;;;;;7.57;3.30;;;9.60;98.40;;;;;;5125881;27;20055;-54
2021/05/22 05:12:39;;;;;;;10.18;2.70;;;9.60;98.00;;;;;;5096254;27;20055;-53
2021/05/22 05:15:09;;;;;;;8.30;3.08;;;9.60;98.10;;;;;;5132006;27;20047;-54
2021/05/22 05:17:40;;;;;;;9.60;3.10;;;9.60;98.20;;;;;;5132270;27;20084;-53
2021/05/22 05:20:11;;;;;;;11.63;3.28;;;9.70;98.00;;;;;;5131002;27;20526;-52
2021/05/22 05:22:37;;;;;;;5.55;2.72;;;9.70;98.00;;;;;;5130493;27;20043;-51
2021/05/22 05:25:08;;;;;;;8.18;3.08;;;9.70;98.00;;;;;;5112903;27;20051;-53
2021/05/22 05:27:34;;;;;;;6.15;2.50;;;9.80;97.50;;;;;;5130260;27;20054;-50
2021/05/22 05:30:02;;;;;;;8.73;2.85;;;9.80;97.40;;;;;;5108506;28;20500;-55
2021/05/22 05:32:32;;;;;;;4.95;2.38;;;9.90;97.30;;;;;;5130146;27;20526;-52
2021/05/22 05:34:58;;;;;;;11.18;3.20;;;9.90;97.20;;;;;;5130708;27;20134;-53
2021/05/22 05:37:25;;;;;;;12.65;3.45;;;9.90;97.20;;;;;;5112687;27;20039;-52
2021/05/22 05:39:51;;;;;;;30.38;23.95;;;9.90;97.00;;;;;;5127179;27;20074;-49
2021/05/22 05:42:18;;;;;;;25.13;18.33;;;9.90;97.20;;;;;;5128858;27;20188;-50
2021/05/22 05:44:44;;;;;;;14.85;7.22;;;10.00;96.80;;;;;;5128642;27;20047;-50
2021/05/22 05:47:11;;;;;;;8.90;5.68;;;10.00;97.30;;;;;;5129497;27;20054;-53
2021/05/22 05:49:37;;;;;;;10.50;4.57;;;10.00;97.40;;;;;;5126306;27;20441;-49
2021/05/22 05:52:04;;;;;;;9.05;4.25;;;9.90;97.10;;;;;;5128802;27;20043;-52
2021/05/22 05:54:33;;;;;;;9.05;3.40;;;9.90;97.50;;;;;;5129467;27;20126;-50
2021/05/22 05:56:59;;;;;;;9.93;3.42;;;9.90;97.40;;;;;;5129255;27;20043;-50
2021/05/22 05:59:28;;;;;;;5.72;3.13;;;9.90;97.50;;;;;;5129626;27;20499;-51
2021/05/22 06:01:54;;;;;;;27.30;17.77;;;9.90;97.30;;;;;;5125171;27;20414;-49
2021/05/22 06:04:29;;;;;;;33.22;23.08;;;9.90;97.50;;;;;;5129719;27;20067;-52
2021/05/22 06:06:58;;;;;;;11.73;6.60;;;9.90;97.80;;;;;;5127186;27;20055;-52
2021/05/22 06:09:24;;;;;;;12.77;5.85;;;10.00;97.40;;;;;;5110353;27;20051;-52
2021/05/22 06:11:50;;;;;;;14.18;7.20;;;10.00;98.10;;;;;;5129084;27;20111;-52
2021/05/22 06:14:26;;;;;;;9.27;3.90;;;10.00;97.70;;;;;;5124634;27;20050;-54
2021/05/22 06:16:56;;;;;;;8.65;3.63;;;10.10;97.30;;;;;;5129637;27;20047;-54
2021/05/22 06:19:22;;;;;;;7.10;2.38;;;10.10;97.40;;;;;;5131656;27;20039;-53
2021/05/22 06:21:51;;;;;;;5.75;2.55;;;10.20;97.50;;;;;;5129821;27;20071;-52
2021/05/22 06:24:17;;;;;;;7.00;2.28;;;10.20;97.40;;;;;;5128554;27;20069;-54
2021/05/22 06:26:46;;;;;;;8.00;2.40;;;10.30;97.20;;;;;;5129140;27;20051;-52
2021/05/22 06:29:14;;;;;;;24.77;18.60;;;10.30;97.30;;;;;;5109069;28;20048;-53
2021/05/22 06:31:43;;;;;;;17.35;10.88;;;10.30;97.70;;;;;;5124942;27;20050;-52
2021/05/22 06:34:09;;;;;;;10.18;6.07;;;10.30;97.70;;;;;;5129225;27;20047;-52
2021/05/22 06:36:36;;;;;;;9.35;4.10;;;10.30;97.50;;;;;;5111405;27;20121;-52
2021/05/22 06:39:03;;;;;;;10.55;6.85;;;10.20;97.80;;;;;;5129680;27;20051;-53
2021/05/22 06:41:32;;;;;;;9.82;4.40;;;10.30;98.00;;;;;;5129713;27;20074;-54
2021/05/22 06:44:01;;;;;;;12.98;3.38;;;10.30;97.90;;;;;;5129621;27;20051;-54
2021/05/22 06:48:58;;;;;;;5.68;3.63;;;10.30;98.40;;;;;;5129346;27;20039;-53
2021/05/22 06:51:27;;;;;;;9.27;3.65;;;10.20;98.20;;;;;;5129777;27;20446;-55
2021/05/22 06:53:53;;;;;;;6.78;3.63;;;10.20;98.80;;;;;;5128044;27;20047;-52
2021/05/22 06:56:20;;;;;;;7.53;3.25;;;10.10;99.00;;;;;;5128355;27;20054;-53
2021/05/22 06:58:47;;;;;;;26.35;19.27;;;10.10;99.20;;;;;;5136547;27;20118;-53
2021/05/22 07:01:15;;;;;;;12.05;5.10;;;10.10;99.30;;;;;;5129156;27;20043;-51
2021/05/22 07:03:44;;;;;;;11.07;6.75;;;10.10;99.40;;;;;;5127986;27;20055;-52
2021/05/22 07:06:12;;;;;;;12.07;5.18;;;10.10;99.20;;;;;;5131233;27;20126;-49
2021/05/22 07:08:41;;;;;;;9.27;4.35;;;10.10;99.70;;;;;;5129363;27;20051;-53
2021/05/22 07:11:09;;;;;;;7.63;3.88;;;10.10;99.50;;;;;;5128402;27;20046;-51
2021/05/22 07:13:35;;;;;;;9.80;4.32;;;10.10;99.90;;;;;;5129430;27;20725;-56
2021/05/22 07:16:04;;;;;;;6.13;3.58;;;10.20;99.70;;;;;;5129186;27;20047;-53
2021/05/22 07:18:30;;;;;;;6.00;3.13;;;10.10;99.70;;;;;;5127815;27;20055;-50
2021/05/22 07:20:59;;;;;;;8.45;3.60;;;10.10;99.80;;;;;;5133629;27;20043;-52
2021/05/22 07:23:25;;;;;;;20.90;13.80;;;10.10;99.90;;;;;;5128858;27;20047;-49
2021/05/22 07:25:52;;;;;;;40.80;33.10;;;10.10;99.90;;;;;;5128639;27;20051;-52
2021/05/22 07:28:21;;;;;;;17.67;12.70;;;10.20;99.90;;;;;;5128678;27;20177;-51
2021/05/22 07:30:47;;;;;;;8.57;4.55;;;10.10;99.90;;;;;;5131308;27;20411;-53
2021/05/22 07:33:14;;;;;;;10.55;6.57;;;10.10;99.90;;;;;;5133124;27;20054;-52
2021/05/22 07:35:41;;;;;;;9.00;4.53;;;10.10;99.90;;;;;;5110026;27;20268;-53
2021/05/22 07:38:07;;;;;;;9.73;4.85;;;10.10;99.90;;;;;;5128815;27;20047;-54
2021/05/22 07:40:34;;;;;;;8.45;5.20;;;10.10;99.90;;;;;;5127774;27;20055;-51
2021/05/22 07:43:01;;;;;;;7.53;5.05;;;10.20;99.90;;;;;;5127420;27;20059;-48
2021/05/22 07:45:28;;;;;;;6.35;4.32;;;10.20;99.90;;;;;;5127962;27;20043;-53
2021/05/22 07:47:54;;;;;;;7.65;4.78;;;10.10;99.90;;;;;;5134821;27;20051;-52
2021/05/22 07:50:23;;;;;;;63.75;49.55;;;10.00;99.90;;;;;;5128844;27;20070;-50
2021/05/22 07:52:54;;;;;;;14.23;7.65;;;10.00;99.90;;;;;;5129494;27;20054;-51
2021/05/22 07:55:21;;;;;;;9.30;6.78;;;9.90;99.90;;;;;;5127977;27;20456;-51
2021/05/22 07:57:50;;;;;;;14.90;6.70;;;9.90;99.90;;;;;;5132796;27;20039;-48
2021/05/22 08:00:17;;;;;;;8.82;6.13;;;9.90;99.90;;;;;;5127953;27;20047;-50
2021/05/22 08:02:46;;;;;;;10.32;5.85;;;10.00;99.90;;;;;;5128406;27;20053;-50
2021/05/22 08:05:16;;;;;;;10.82;5.80;;;10.00;99.90;;;;;;5105198;27;21371;-50
2021/05/22 08:07:44;;;;;;;7.32;5.43;;;10.00;99.90;;;;;;5144685;27;20055;-49
2021/05/22 08:10:18;;;;;;;6.95;5.60;;;10.00;99.90;;;;;;5140712;27;20046;-48
2021/05/22 08:12:44;;;;;;;7.22;5.28;;;10.00;99.90;;;;;;5148099;27;20046;-48
2021/05/22 08:15:12;;;;;;;9.68;4.85;;;10.00;99.90;;;;;;5147743;27;20057;-47
2021/05/22 08:17:41;;;;;;;7.80;5.53;;;10.00;99.90;;;;;;5148059;27;20043;-48
2021/05/22 08:20:10;;;;;;;8.70;5.28;;;10.00;99.90;;;;;;5143517;27;20047;-47
2021/05/22 08:22:36;;;;;;;7.03;5.00;;;10.10;99.90;;;;;;5151718;27;20383;-47
2021/05/22 08:25:05;;;;;;;7.03;5.25;;;10.10;99.90;;;;;;5147567;27;20038;-50
2021/05/22 08:27:31;;;;;;;7.97;5.47;;;10.10;99.90;;;;;;5147536;27;20051;-48
2021/05/22 08:29:58;;;;;;;8.65;5.95;;;10.10;99.90;;;;;;5151267;27;20046;-48
2021/05/22 08:32:26;;;;;;;9.10;8.18;;;10.10;99.90;;;;;;5147149;27;20138;-48
2021/05/22 08:34:57;;;;;;;14.55;11.52;;;10.10;99.90;;;;;;5147408;27;20062;-47
2021/05/22 08:37:24;;;;;;;12.77;10.13;;;10.10;99.90;;;;;;5146267;27;20046;-48
2021/05/22 08:39:52;;;;;;;12.55;7.30;;;10.10;99.90;;;;;;5148278;27;20050;-49
2021/05/22 08:42:24;;;;;;;10.15;7.95;;;10.10;99.90;;;;;;5148396;27;20054;-46
2021/05/22 08:44:52;;;;;;;7.65;6.95;;;10.20;99.90;;;;;;5145223;27;20046;-47
2021/05/22 08:47:18;;;;;;;10.13;8.18;;;10.20;99.90;;;;;;5151668;27;20045;-47
2021/05/22 08:49:45;;;;;;;7.57;6.35;;;10.20;99.90;;;;;;5148196;27;20046;-46
2021/05/22 08:52:22;;;;;;;9.30;7.05;;;10.30;99.90;;;;;;5148256;27;20067;-49
2021/05/22 08:54:49;;;;;;;7.97;6.90;;;10.40;99.90;;;;;;5140036;27;20065;-47
2021/05/22 08:57:17;;;;;;;9.93;6.30;;;10.30;99.90;;;;;;5152841;27;20034;-46
2021/05/22 08:59:46;;;;;;;10.05;7.40;;;10.40;99.90;;;;;;5151881;27;20098;-48
2021/05/22 09:02:18;;;;;;;7.70;6.68;;;10.40;99.90;;;;;;5156222;27;20498;-48
2021/05/22 09:05:06;;;;;;;21.42;19.08;;;10.40;99.90;;;;;;5148619;27;20038;-48
2021/05/22 09:07:34;;;;;;;10.50;8.20;;;10.50;99.90;;;;;;5150080;27;20050;-50
2021/05/22 09:10:14;;;;;;;12.20;9.35;;;10.50;99.90;;;;;;5151807;27;20069;-46
2021/05/22 09:12:43;;;;;;;12.05;10.82;;;10.60;99.90;;;;;;5151610;27;20392;-46
2021/05/22 09:15:12;;;;;;;8.18;7.38;;;10.70;99.90;;;;;;5151422;27;20043;-48
2021/05/22 09:17:49;;;;;;;9.20;8.30;;;10.80;99.90;;;;;;5151316;27;20058;-46
2021/05/22 09:20:27;;;;;;;10.75;8.75;;;10.90;99.90;;;;;;5149912;27;20049;-45
2021/05/22 09:22:56;;;;;;;11.13;10.05;;;11.10;99.90;;;;;;5151938;27;20046;-47
2021/05/22 09:25:23;;;;;;;9.77;7.78;;;11.00;99.90;;;;;;5151968;27;20125;-45
2021/05/22 09:27:52;;;;;;;11.77;9.88;;;11.00;99.90;;;;;;5153162;27;20050;-46
2021/05/22 09:30:23;;;;;;;9.43;8.10;;;11.00;99.90;;;;;;5151922;27;20051;-47
2021/05/22 09:32:52;;;;;;;8.77;7.68;;;11.00;99.90;;;;;;5152546;27;20102;-45
2021/05/22 09:35:19;;;;;;;10.73;7.47;;;11.10;99.90;;;;;;5153997;27;20048;-46
2021/05/22 09:37:55;;;;;;;8.23;7.40;;;11.10;99.90;;;;;;5136319;27;20050;-47
2021/05/22 09:40:27;;;;;;;8.32;7.32;;;11.10;99.90;;;;;;5143655;27;20042;-46
2021/05/22 09:42:58;;;;;;;10.40;7.50;;;11.00;99.90;;;;;;5147979;27;20047;-47
2021/05/22 09:45:44;;;;;;;9.93;7.97;;;10.90;99.90;;;;;;5127313;27;20054;-46
2021/05/22 09:48:18;;;;;;;8.98;8.07;;;10.80;99.90;;;;;;5151160;27;20095;-47
2021/05/22 09:50:51;;;;;;;9.93;8.93;;;10.70;99.90;;;;;;5151356;27;20050;-48
2021/05/22 09:53:39;;;;;;;9.13;8.32;;;10.70;99.90;;;;;;5145965;27;20054;-45
2021/05/22 09:56:27;;;;;;;9.13;7.63;;;10.70;99.90;;;;;;5150651;27;20046;-45
2021/05/22 09:59:02;;;;;;;9.90;8.90;;;10.70;99.90;;;;;;5149091;27;20525;-45
2021/05/22 10:01:40;;;;;;;10.25;9.25;;;10.80;99.90;;;;;;5148351;27;20069;-48
2021/05/22 10:04:21;;;;;;;9.55;8.57;;;10.90;99.90;;;;;;5150871;27;20042;-46
2021/05/22 10:06:47;;;;;;;9.55;8.65;;;11.20;99.90;;;;;;5148035;27;20051;-46
2021/05/22 10:09:16;;;;;;;10.57;9.57;;;11.60;99.90;;;;;;5156023;27;20035;-46
2021/05/22 10:12:13;;;;;;;7.15;6.55;;;12.00;99.90;;;;;;5150656;27;20179;-47
2021/05/22 10:14:42;;;;;;;9.40;7.50;;;12.00;99.90;;;;;;5155664;27;20043;-46
2021/05/22 10:17:14;;;;;;;7.20;6.60;;;12.40;99.90;;;;;;5149438;27;20095;-45
2021/05/22 10:19:43;;;;;;;;;;;12.70;99.90;;;;;;5150639;27;20566;-44
2021/05/22 10:22:09;;;;;;;5.70;5.20;;;13.30;99.90;;;;;;5149106;27;20013;-45
2021/05/22 10:24:42;;;;;;;6.03;4.45;;;13.70;99.90;;;;;;5150294;27;20074;-45
2021/05/22 10:27:10;;;;;;;3.90;3.50;;;13.80;99.10;;;;;;5147105;27;20134;-44
2021/05/22 10:29:39;;;;;;;5.05;3.50;;;13.40;98.70;;;;;;5149533;27;20127;-48
2021/05/22 10:32:05;;;;;;;4.28;3.85;;;12.90;97.70;;;;;;5120332;27;20039;-46
2021/05/22 10:34:37;;;;;;;5.60;4.25;;;12.50;98.70;;;;;;5149238;27;20038;-45
2021/05/22 10:37:08;;;;;;;4.63;4.13;;;12.20;99.60;;;;;;5127360;27;20038;-46
2021/05/22 10:39:43;;;;;;;6.03;5.43;;;11.90;99.90;;;;;;5152712;27;20038;-49
2021/05/22 10:42:32;;;;;;;7.72;6.90;;;11.70;99.90;;;;;;5149613;27;20047;-48
2021/05/22 10:45:32;;;;;;;6.82;5.75;;;11.60;99.90;;;;;;5143857;27;20039;-48
2021/05/22 10:48:03;;;;;;;7.88;7.05;;;11.50;99.90;;;;;;5156294;27;20041;-46
2021/05/22 10:50:41;;;;;;;8.48;7.72;;;11.50;99.90;;;;;;5149907;27;20054;-47
2021/05/22 10:53:37;;;;;;;8.82;7.82;;;11.70;99.90;;;;;;5149154;27;20054;-48
2021/05/22 10:56:19;;;;;;;7.88;7.07;;;11.70;99.90;;;;;;5148980;27;20043;-46
2021/05/22 10:58:58;;;;;;;7.93;7.13;;;11.70;99.90;;;;;;5147309;27;20046;-47
2021/05/22 11:01:28;;;;;;;9.32;7.97;;;11.70;99.90;;;;;;5149389;27;20062;-46
2021/05/22 11:06:44;;;;;;;7.40;6.70;;;11.80;99.90;;;;;;5155320;27;20042;-51
2021/05/22 11:09:25;;;;;;;9.02;6.45;;;11.90;99.90;;;;;;5147034;27;20039;-46
2021/05/22 11:11:52;;;;;;;8.07;6.45;;;11.80;99.90;;;;;;5145295;27;20057;-49
2021/05/22 11:14:50;;;;;;;6.40;5.78;;;11.80;99.90;;;;;;5148054;27;20515;-46
2021/05/22 11:17:22;;;;;;;7.88;7.05;;;11.90;99.90;;;;;;5147031;27;20068;-48
2021/05/22 11:19:57;;;;;;;6.53;5.88;;;12.00;99.90;;;;;;5148082;27;20148;-48
2021/05/22 11:22:30;;;;;;;10.63;6.88;;;12.00;99.90;;;;;;5148361;27;20056;-46
2021/05/22 11:25:10;;;;;;;6.68;5.78;;;12.10;99.90;;;;;;5148402;27;20042;-49
2021/05/22 11:27:44;;;;;;;7.63;5.75;;;12.00;99.90;;;;;;5131351;27;20059;-47
2021/05/22 11:30:15;;;;;;;7.28;6.43;;;12.10;99.90;;;;;;5150460;27;20120;-46
2021/05/22 11:33:06;;;;;;;9.60;6.85;;;12.30;99.90;;;;;;5147205;27;20166;-49
2021/05/22 11:35:47;;;;;;;8.63;6.10;;;12.50;99.90;;;;;;5125573;27;20051;-46
2021/05/22 11:38:23;;;;;;;7.15;4.50;;;12.90;99.90;;;;;;5151167;27;20085;-47
2021/05/22 11:40:51;;;;;;;6.97;3.83;;;13.00;99.30;;;;;;5155310;27;20038;-47
2021/05/22 11:43:28;;;;;;;4.72;3.17;;;12.80;97.50;;;;;;5147062;27;20046;-50
2021/05/22 11:46:15;;;;;;;6.97;3.47;;;13.40;98.30;;;;;;5146944;27;20103;-47
2021/05/22 11:48:52;;;;;;;4.03;2.78;;;13.70;97.70;;;;;;5147804;27;20053;-46
2021/05/22 11:51:28;;;;;;;6.45;2.50;;;14.50;96.80;;;;;;5148294;27;20063;-50
2021/05/22 11:54:07;;;;;;;3.58;2.00;;;14.30;95.00;;;;;;5147640;27;20053;-46
2021/05/22 11:56:36;;;;;;;4.88;1.90;;;14.30;94.10;;;;;;5148755;27;20046;-49
2021/05/22 11:59:04;;;;;;;4.32;1.80;;;14.00;93.80;;;;;;5149601;27;20046;-48
2021/05/22 12:01:42;;;;;;;4.63;1.80;;;13.50;92.50;;;;;;5144959;27;20070;-48
2021/05/22 12:04:11;;;;;;;9.85;5.70;;;13.30;92.90;;;;;;5142659;27;20065;-52
2021/05/22 12:06:47;;;;;;;6.13;3.37;;;13.30;94.10;;;;;;5144568;27;20047;-48
2021/05/22 12:09:14;;;;;;;14.95;9.38;;;13.20;94.00;;;;;;5135837;27;20091;-49
2021/05/22 12:12:04;;;;;;;9.48;5.40;;;13.30;93.90;;;;;;5147698;27;20074;-51
2021/05/22 12:14:37;;;;;;;4.53;1.90;;;13.40;92.30;;;;;;5147187;27;20047;-47
2021/05/22 12:17:07;;;;;;;7.15;2.10;;;13.40;92.70;;;;;;5153422;27;20038;-52
2021/05/22 12:19:42;;;;;;;4.70;2.20;;;13.50;92.60;;;;;;5147783;27;20130;-49
2021/05/22 12:22:09;;;;;;;6.00;2.72;;;13.20;92.10;;;;;;5148484;27;20039;-52
2021/05/22 12:24:36;;;;;;;6.38;2.50;;;13.10;92.50;;;;;;5147784;27;20046;-51
2021/05/22 12:27:03;;;;;;;5.45;2.35;;;14.00;92.80;;;;;;5155233;27;20103;-49
2021/05/22 12:29:32;;;;;;;5.47;2.17;;;14.50;93.00;;;;;;5148870;27;20077;-49
2021/05/22 12:32:04;;;;;;;4.40;1.90;;;14.20;90.50;;;;;;5148116;27;20046;-50
2021/05/22 12:34:33;;;;;;;5.38;2.25;;;13.90;91.20;;;;;;5154558;27;20042;-47
2021/05/22 12:37:10;;;;;;;7.75;2.67;;;13.60;91.30;;;;;;5152221;27;20165;-51
2021/05/22 12:39:41;;;;;;;25.75;21.25;;;13.70;91.50;;;;;;5149887;27;20059;-52
2021/05/22 12:42:23;;;;;;;10.70;7.13;;;13.70;91.80;;;;;;5152341;27;20046;-52
2021/05/22 12:44:57;;;;;;;8.23;3.58;;;13.50;91.60;;;;;;5152039;27;20133;-52
2021/05/22 12:47:37;;;;;;;14.77;10.50;;;13.20;91.80;;;;;;5150478;27;20099;-50
2021/05/22 12:50:07;;;;;;;9.52;4.57;;;12.90;93.60;;;;;;5151777;27;20039;-52
2021/05/22 12:52:53;;;;;;;13.63;6.93;;;12.70;94.40;;;;;;5155032;27;20054;-49
2021/05/22 12:55:30;;;;;;;9.20;4.68;;;12.60;95.20;;;;;;5155071;27;20046;-49
2021/05/22 12:57:58;;;;;;;9.70;4.30;;;12.70;95.50;;;;;;5152256;27;20043;-49
2021/05/22 13:00:27;;;;;;;39.25;29.60;;;12.90;95.60;;;;;;5132040;27;20539;-49
2021/05/22 13:02:58;;;;;;;14.02;8.52;;;13.00;94.80;;;;;;5131120;27;20051;-48
2021/05/22 13:05:37;;;;;;;13.83;5.57;;;13.20;94.30;;;;;;5130986;27;20048;-49